< < Back
Terminal Aerodrome Forecast


Current Version              Previous Versions:   1  2  3  4  5  6  7  8  9  

Terminal Aerodrome Forecast

381
FTUS44 KMOB 220100 AAA
TAFPNS
TAF AMD
KPNS 220111Z 2201/2224 07006KT P6SM OVC005
     FM220300 07004KT 5SM BR OVC005
     FM220800 07005KT 5SM BR VCSH OVC004
     FM221800 13008KT P6SM VCSH OVC010=

Latest METAR

302
SAUS70 KWBC 220500 RRC
MTRPNS
METAR KPNS 220453Z AUTO 08004KT 10SM OVC005 12/12 A3000 RMK AO2 SLP160
T01170117


USA.gov is the U.S. government's official web portal to all federal, state and local government web resources and services.